sensor_id;sensor_type;location;lat;lon;timestamp;pressure;altitude;pressure_sealevel;temperature;humidity
69198;BME280;56311;50.298;8.514;2023-07-22T00:00:00;97630.0;;;13.1;100.0
69198;BME280;56311;50.298;8.514;2023-07-22T00:02:00;97640.0;;;13.0;100.0
69198;BME280;56311;50.298;8.514;2023-07-22T00:04:00;97630.0;;;13.0;100.0
69198;BME280;56311;50.298;8.514;2023-07-22T00:06:03;97630.0;;;12.9;100.0
69198;BME280;56311;50.298;8.514;2023-07-22T00:08:00;97640.0;;;12.7;100.0
69198;BME280;56311;50.298;8.514;2023-07-22T00:10:00;97640.0;;;12.7;100.0
69198;BME280;56311;50.298;8.514;2023-07-22T00:12:00;97640.0;;;12.5;100.0
69198;BME280;56311;50.298;8.514;2023-07-22T00:14:00;97640.0;;;12.4;100.0
69198;BME280;56311;50.298;8.514;2023-07-22T00:16:00;97640.0;;;12.3;100.0
69198;BME280;56311;50.298;8.514;2023-07-22T00:18:00;97640.0;;;12.3;100.0
69198;BME280;56311;50.298;8.514;2023-07-22T00:20:00;97640.0;;;12.3;100.0
69198;BME280;56311;50.298;8.514;2023-07-22T00:22:00;97640.0;;;12.3;100.0
69198;BME280;56311;50.298;8.514;2023-07-22T00:24:00;97640.0;;;12.3;100.0
69198;BME280;56311;50.298;8.514;2023-07-22T00:26:00;97640.0;;;12.3;100.0
69198;BME280;56311;50.298;8.514;2023-07-22T00:28:00;97640.0;;;12.1;100.0
69198;BME280;56311;50.298;8.514;2023-07-22T00:30:00;97640.0;;;12.1;100.0
69198;BME280;56311;50.298;8.514;2023-07-22T00:32:00;97640.0;;;12.1;100.0
69198;BME280;56311;50.298;8.514;2023-07-22T00:34:00;97640.0;;;12.1;100.0
69198;BME280;56311;50.298;8.514;2023-07-22T00:36:00;97640.0;;;12.1;100.0
69198;BME280;56311;50.298;8.514;2023-07-22T00:38:00;97640.0;;;12.1;100.0
69198;BME280;56311;50.298;8.514;2023-07-22T00:40:00;97640.0;;;12.0;100.0
69198;BME280;56311;50.298;8.514;2023-07-22T00:42:00;97640.0;;;12.0;100.0
69198;BME280;56311;50.298;8.514;2023-07-22T00:44:00;97630.0;;;12.0;100.0
69198;BME280;56311;50.298;8.514;2023-07-22T00:46:00;97630.0;;;12.0;100.0
69198;BME280;56311;50.298;8.514;2023-07-22T00:48:01;97640.0;;;11.9;100.0
69198;BME280;56311;50.298;8.514;2023-07-22T00:50:01;97640.0;;;11.9;100.0
69198;BME280;56311;50.298;8.514;2023-07-22T00:52:01;97640.0;;;11.8;100.0
69198;BME280;56311;50.298;8.514;2023-07-22T00:54:00;97640.0;;;11.8;100.0
69198;BME280;56311;50.298;8.514;2023-07-22T00:56:00;97640.0;;;11.9;100.0
69198;BME280;56311;50.298;8.514;2023-07-22T00:58:00;97640.0;;;11.9;100.0
69198;BME280;56311;50.298;8.514;2023-07-22T01:00:00;97640.0;;;11.7;100.0
69198;BME280;56311;50.298;8.514;2023-07-22T01:02:00;97640.0;;;11.7;100.0
69198;BME280;56311;50.298;8.514;2023-07-22T01:04:00;97640.0;;;11.6;100.0
69198;BME280;56311;50.298;8.514;2023-07-22T01:06:01;97640.0;;;11.6;100.0
69198;BME280;56311;50.298;8.514;2023-07-22T01:08:00;97640.0;;;11.6;100.0
69198;BME280;56311;50.298;8.514;2023-07-22T01:10:00;97640.0;;;11.6;100.0
69198;BME280;56311;50.298;8.514;2023-07-22T01:12:00;97640.0;;;11.5;100.0
69198;BME280;56311;50.298;8.514;2023-07-22T01:14:00;97640.0;;;11.5;100.0
69198;BME280;56311;50.298;8.514;2023-07-22T01:16:00;97640.0;;;11.4;100.0
69198;BME280;56311;50.298;8.514;2023-07-22T01:18:00;97640.0;;;11.4;100.0
69198;BME280;56311;50.298;8.514;2023-07-22T01:20:00;97640.0;;;11.4;100.0
69198;BME280;56311;50.298;8.514;2023-07-22T01:22:03;97630.0;;;11.3;100.0
69198;BME280;56311;50.298;8.514;2023-07-22T01:24:00;97640.0;;;11.3;100.0
69198;BME280;56311;50.298;8.514;2023-07-22T01:26:00;97640.0;;;11.3;100.0
69198;BME280;56311;50.298;8.514;2023-07-22T01:28:00;97640.0;;;11.2;100.0
69198;BME280;56311;50.298;8.514;2023-07-22T01:30:00;97640.0;;;11.9;100.0
69198;BME280;56311;50.298;8.514;2023-07-22T01:32:00;97640.0;;;12.5;100.0
69198;BME280;56311;50.298;8.514;2023-07-22T01:34:00;97630.0;;;12.4;100.0
69198;BME280;56311;50.298;8.514;2023-07-22T01:36:00;97640.0;;;12.2;100.0
69198;BME280;56311;50.298;8.514;2023-07-22T01:38:00;97630.0;;;12.1;100.0
69198;BME280;56311;50.298;8.514;2023-07-22T01:40:00;97640.0;;;11.9;100.0
69198;BME280;56311;50.298;8.514;2023-07-22T01:42:00;97640.0;;;11.7;100.0
69198;BME280;56311;50.298;8.514;2023-07-22T01:44:00;97630.0;;;11.6;100.0
69198;BME280;56311;50.298;8.514;2023-07-22T01:46:00;97630.0;;;11.5;100.0
69198;BME280;56311;50.298;8.514;2023-07-22T01:48:00;97630.0;;;11.5;100.0
69198;BME280;56311;50.298;8.514;2023-07-22T01:50:01;97630.0;;;11.4;100.0
69198;BME280;56311;50.298;8.514;2023-07-22T01:52:00;97630.0;;;11.4;100.0
69198;BME280;56311;50.298;8.514;2023-07-22T01:58:01;97630.0;;;11.5;100.0
69198;BME280;56311;50.298;8.514;2023-07-22T02:00:00;97630.0;;;11.4;100.0
69198;BME280;56311;50.298;8.514;2023-07-22T02:02:00;97630.0;;;11.4;100.0
69198;BME280;56311;50.298;8.514;2023-07-22T02:04:00;97630.0;;;11.4;100.0
69198;BME280;56311;50.298;8.514;2023-07-22T02:06:02;97620.0;;;11.5;100.0
69198;BME280;56311;50.298;8.514;2023-07-22T02:08:00;97620.0;;;11.5;100.0
69198;BME280;56311;50.298;8.514;2023-07-22T02:10:00;97630.0;;;11.4;100.0
69198;BME280;56311;50.298;8.514;2023-07-22T02:12:00;97630.0;;;11.4;100.0
69198;BME280;56311;50.298;8.514;2023-07-22T02:14:00;97630.0;;;11.3;100.0
69198;BME280;56311;50.298;8.514;2023-07-22T02:16:01;97630.0;;;11.3;100.0
69198;BME280;56311;50.298;8.514;2023-07-22T02:18:00;97630.0;;;11.3;100.0
69198;BME280;56311;50.298;8.514;2023-07-22T02:20:00;97630.0;;;11.2;100.0
69198;BME280;56311;50.298;8.514;2023-07-22T02:22:00;97630.0;;;11.3;100.0
69198;BME280;56311;50.298;8.514;2023-07-22T02:24:00;97630.0;;;11.2;100.0
69198;BME280;56311;50.298;8.514;2023-07-22T02:26:01;97630.0;;;11.2;100.0
69198;BME280;56311;50.298;8.514;2023-07-22T02:28:00;97630.0;;;11.2;100.0
69198;BME280;56311;50.298;8.514;2023-07-22T02:30:00;97620.0;;;11.2;100.0
69198;BME280;56311;50.298;8.514;2023-07-22T02:32:00;97620.0;;;11.2;100.0
69198;BME280;56311;50.298;8.514;2023-07-22T02:34:00;97620.0;;;11.1;100.0
69198;BME280;56311;50.298;8.514;2023-07-22T02:36:00;97620.0;;;11.1;100.0
69198;BME280;56311;50.298;8.514;2023-07-22T02:38:00;97630.0;;;11.1;100.0
69198;BME280;56311;50.298;8.514;2023-07-22T02:40:00;97620.0;;;11.1;100.0
69198;BME280;56311;50.298;8.514;2023-07-22T02:42:00;97630.0;;;11.1;100.0
69198;BME280;56311;50.298;8.514;2023-07-22T02:44:00;97630.0;;;11.1;100.0
69198;BME280;56311;50.298;8.514;2023-07-22T02:46:01;97630.0;;;11.1;100.0
69198;BME280;56311;50.298;8.514;2023-07-22T02:48:00;97630.0;;;11.0;100.0
69198;BME280;56311;50.298;8.514;2023-07-22T02:50:00;97630.0;;;11.0;100.0
69198;BME280;56311;50.298;8.514;2023-07-22T02:52:00;97630.0;;;10.9;100.0
69198;BME280;56311;50.298;8.514;2023-07-22T02:54:00;97630.0;;;10.9;100.0
69198;BME280;56311;50.298;8.514;2023-07-22T02:56:00;97620.0;;;10.8;100.0
69198;BME280;56311;50.298;8.514;2023-07-22T02:58:00;97620.0;;;10.7;100.0
69198;BME280;56311;50.298;8.514;2023-07-22T03:00:00;97620.0;;;10.8;100.0
69198;BME280;56311;50.298;8.514;2023-07-22T03:02:00;97620.0;;;10.8;100.0
69198;BME280;56311;50.298;8.514;2023-07-22T03:04:00;97620.0;;;10.8;100.0
69198;BME280;56311;50.298;8.514;2023-07-22T03:06:00;97620.0;;;10.8;100.0
69198;BME280;56311;50.298;8.514;2023-07-22T03:08:00;97620.0;;;10.9;100.0
69198;BME280;56311;50.298;8.514;2023-07-22T03:10:00;97630.0;;;10.9;100.0
69198;BME280;56311;50.298;8.514;2023-07-22T03:12:00;97630.0;;;10.8;100.0
69198;BME280;56311;50.298;8.514;2023-07-22T03:14:00;97630.0;;;10.8;100.0
69198;BME280;56311;50.298;8.514;2023-07-22T03:16:00;97640.0;;;10.7;100.0
69198;BME280;56311;50.298;8.514;2023-07-22T03:18:00;97640.0;;;10.7;100.0
69198;BME280;56311;50.298;8.514;2023-07-22T03:20:00;97630.0;;;10.8;100.0
69198;BME280;56311;50.298;8.514;2023-07-22T03:22:00;97630.0;;;10.8;100.0
69198;BME280;56311;50.298;8.514;2023-07-22T03:24:00;97640.0;;;10.8;100.0
69198;BME280;56311;50.298;8.514;2023-07-22T03:26:01;97640.0;;;10.9;100.0
69198;BME280;56311;50.298;8.514;2023-07-22T03:28:03;97640.0;;;10.8;100.0
69198;BME280;56311;50.298;8.514;2023-07-22T03:30:00;97640.0;;;10.8;100.0
69198;BME280;56311;50.298;8.514;2023-07-22T03:32:00;97640.0;;;10.8;100.0
69198;BME280;56311;50.298;8.514;2023-07-22T03:34:00;97640.0;;;10.7;100.0
69198;BME280;56311;50.298;8.514;2023-07-22T03:36:00;97640.0;;;10.7;100.0
69198;BME280;56311;50.298;8.514;2023-07-22T03:38:00;97650.0;;;10.7;100.0
69198;BME280;56311;50.298;8.514;2023-07-22T03:40:00;97650.0;;;10.7;100.0
69198;BME280;56311;50.298;8.514;2023-07-22T03:42:00;97650.0;;;10.7;100.0
69198;BME280;56311;50.298;8.514;2023-07-22T03:44:00;97650.0;;;10.7;100.0
69198;BME280;56311;50.298;8.514;2023-07-22T03:46:00;97650.0;;;10.6;100.0
69198;BME280;56311;50.298;8.514;2023-07-22T03:48:00;97650.0;;;10.6;100.0
69198;BME280;56311;50.298;8.514;2023-07-22T03:50:00;97650.0;;;10.6;100.0
69198;BME280;56311;50.298;8.514;2023-07-22T03:52:00;97650.0;;;10.5;100.0
69198;BME280;56311;50.298;8.514;2023-07-22T03:54:00;97650.0;;;10.5;100.0
69198;BME280;56311;50.298;8.514;2023-07-22T03:56:00;97650.0;;;10.5;100.0
69198;BME280;56311;50.298;8.514;2023-07-22T03:58:01;97650.0;;;10.5;100.0
69198;BME280;56311;50.298;8.514;2023-07-22T04:00:00;97650.0;;;10.4;100.0
69198;BME280;56311;50.298;8.514;2023-07-22T04:02:01;97650.0;;;10.4;100.0
69198;BME280;56311;50.298;8.514;2023-07-22T04:04:00;97650.0;;;10.4;100.0
69198;BME280;56311;50.298;8.514;2023-07-22T04:06:00;97640.0;;;10.4;100.0
69198;BME280;56311;50.298;8.514;2023-07-22T04:08:00;97650.0;;;10.4;100.0
69198;BME280;56311;50.298;8.514;2023-07-22T04:10:00;97650.0;;;10.4;100.0
69198;BME280;56311;50.298;8.514;2023-07-22T04:12:00;97650.0;;;10.5;100.0
69198;BME280;56311;50.298;8.514;2023-07-22T04:14:00;97650.0;;;10.5;100.0
69198;BME280;56311;50.298;8.514;2023-07-22T04:16:00;97650.0;;;10.5;100.0
69198;BME280;56311;50.298;8.514;2023-07-22T04:18:00;97650.0;;;10.4;100.0
69198;BME280;56311;50.298;8.514;2023-07-22T04:20:00;97650.0;;;10.4;100.0
69198;BME280;56311;50.298;8.514;2023-07-22T04:22:00;97660.0;;;10.3;100.0
69198;BME280;56311;50.298;8.514;2023-07-22T04:24:00;97650.0;;;10.4;100.0
69198;BME280;56311;50.298;8.514;2023-07-22T04:26:02;97650.0;;;10.4;100.0
69198;BME280;56311;50.298;8.514;2023-07-22T04:28:00;97650.0;;;10.4;100.0
69198;BME280;56311;50.298;8.514;2023-07-22T04:30:00;97650.0;;;10.3;100.0
69198;BME280;56311;50.298;8.514;2023-07-22T04:32:01;97650.0;;;10.4;100.0
69198;BME280;56311;50.298;8.514;2023-07-22T04:34:00;97650.0;;;10.5;100.0
69198;BME280;56311;50.298;8.514;2023-07-22T04:36:00;97650.0;;;10.6;100.0
69198;BME280;56311;50.298;8.514;2023-07-22T04:38:00;97650.0;;;10.6;100.0
69198;BME280;56311;50.298;8.514;2023-07-22T04:40:00;97650.0;;;10.7;100.0
69198;BME280;56311;50.298;8.514;2023-07-22T04:42:00;97650.0;;;10.7;100.0
69198;BME280;56311;50.298;8.514;2023-07-22T04:44:00;97650.0;;;10.7;100.0
69198;BME280;56311;50.298;8.514;2023-07-22T04:46:00;97650.0;;;10.7;100.0
69198;BME280;56311;50.298;8.514;2023-07-22T04:48:01;97650.0;;;10.8;100.0
69198;BME280;56311;50.298;8.514;2023-07-22T04:50:00;97650.0;;;10.8;100.0
69198;BME280;56311;50.298;8.514;2023-07-22T04:52:00;97650.0;;;10.8;100.0
69198;BME280;56311;50.298;8.514;2023-07-22T04:54:00;97650.0;;;10.9;100.0
69198;BME280;56311;50.298;8.514;2023-07-22T04:56:00;97650.0;;;10.9;100.0
69198;BME280;56311;50.298;8.514;2023-07-22T04:58:00;97650.0;;;11.1;100.0
69198;BME280;56311;50.298;8.514;2023-07-22T05:00:00;97650.0;;;11.1;100.0
69198;BME280;56311;50.298;8.514;2023-07-22T05:02:00;97650.0;;;11.1;100.0
69198;BME280;56311;50.298;8.514;2023-07-22T05:04:00;97650.0;;;11.3;100.0
69198;BME280;56311;50.298;8.514;2023-07-22T05:06:00;97650.0;;;11.3;100.0
69198;BME280;56311;50.298;8.514;2023-07-22T05:08:00;97660.0;;;11.4;100.0
69198;BME280;56311;50.298;8.514;2023-07-22T05:10:00;97650.0;;;11.5;100.0
69198;BME280;56311;50.298;8.514;2023-07-22T05:12:00;97660.0;;;11.5;100.0
69198;BME280;56311;50.298;8.514;2023-07-22T05:14:00;97650.0;;;11.6;100.0
69198;BME280;56311;50.298;8.514;2023-07-22T05:16:00;97660.0;;;11.6;100.0
69198;BME280;56311;50.298;8.514;2023-07-22T05:18:00;97660.0;;;11.7;100.0
69198;BME280;56311;50.298;8.514;2023-07-22T05:20:00;97660.0;;;11.8;100.0
69198;BME280;56311;50.298;8.514;2023-07-22T05:22:00;97660.0;;;11.9;100.0
69198;BME280;56311;50.298;8.514;2023-07-22T05:24:00;97660.0;;;12.0;100.0
69198;BME280;56311;50.298;8.514;2023-07-22T05:26:00;97660.0;;;12.1;100.0
69198;BME280;56311;50.298;8.514;2023-07-22T05:28:00;97670.0;;;12.1;100.0
69198;BME280;56311;50.298;8.514;2023-07-22T05:30:00;97660.0;;;12.2;100.0
69198;BME280;56311;50.298;8.514;2023-07-22T05:32:00;97670.0;;;12.4;100.0
69198;BME280;56311;50.298;8.514;2023-07-22T05:34:00;97660.0;;;12.5;100.0
69198;BME280;56311;50.298;8.514;2023-07-22T05:36:00;97670.0;;;12.6;100.0
69198;BME280;56311;50.298;8.514;2023-07-22T05:38:00;97670.0;;;12.6;100.0
69198;BME280;56311;50.298;8.514;2023-07-22T05:40:00;97670.0;;;12.8;100.0
69198;BME280;56311;50.298;8.514;2023-07-22T05:42:00;97670.0;;;12.9;100.0
69198;BME280;56311;50.298;8.514;2023-07-22T05:44:00;97670.0;;;12.9;100.0
69198;BME280;56311;50.298;8.514;2023-07-22T05:46:00;97670.0;;;13.0;100.0
69198;BME280;56311;50.298;8.514;2023-07-22T05:48:00;97660.0;;;13.0;100.0
69198;BME280;56311;50.298;8.514;2023-07-22T05:50:00;97670.0;;;13.1;100.0
69198;BME280;56311;50.298;8.514;2023-07-22T05:52:00;97670.0;;;13.2;100.0
69198;BME280;56311;50.298;8.514;2023-07-22T05:54:00;97660.0;;;13.3;100.0
69198;BME280;56311;50.298;8.514;2023-07-22T05:56:00;97660.0;;;13.4;99.1
69198;BME280;56311;50.298;8.514;2023-07-22T05:58:02;97670.0;;;13.5;98.7
69198;BME280;56311;50.298;8.514;2023-07-22T06:00:00;97670.0;;;13.6;99.3
69198;BME280;56311;50.298;8.514;2023-07-22T06:02:00;97670.0;;;13.7;98.6
69198;BME280;56311;50.298;8.514;2023-07-22T06:04:00;97660.0;;;13.9;98.6
69198;BME280;56311;50.298;8.514;2023-07-22T06:06:00;97670.0;;;14.0;97.1
69198;BME280;56311;50.298;8.514;2023-07-22T06:08:00;97670.0;;;14.1;98.3
69198;BME280;56311;50.298;8.514;2023-07-22T06:10:00;97670.0;;;14.2;96.8
69198;BME280;56311;50.298;8.514;2023-07-22T06:12:00;97670.0;;;14.4;96.0
69198;BME280;56311;50.298;8.514;2023-07-22T06:14:00;97680.0;;;14.6;95.9
69198;BME280;56311;50.298;8.514;2023-07-22T06:16:00;97680.0;;;14.7;95.3
69198;BME280;56311;50.298;8.514;2023-07-22T06:18:01;97680.0;;;14.7;94.6
69198;BME280;56311;50.298;8.514;2023-07-22T06:20:00;97680.0;;;14.8;94.8
69198;BME280;56311;50.298;8.514;2023-07-22T06:22:00;97680.0;;;14.7;95.5
69198;BME280;56311;50.298;8.514;2023-07-22T06:24:00;97680.0;;;14.8;96.5
69198;BME280;56311;50.298;8.514;2023-07-22T06:26:00;97680.0;;;14.9;97.0
69198;BME280;56311;50.298;8.514;2023-07-22T06:28:00;97680.0;;;14.9;98.4
69198;BME280;56311;50.298;8.514;2023-07-22T06:30:00;97680.0;;;14.8;99.2
69198;BME280;56311;50.298;8.514;2023-07-22T06:32:00;97680.0;;;14.8;99.4
69198;BME280;56311;50.298;8.514;2023-07-22T06:34:00;97690.0;;;14.9;99.0
69198;BME280;56311;50.298;8.514;2023-07-22T06:36:00;97680.0;;;15.2;99.1
69198;BME280;56311;50.298;8.514;2023-07-22T06:38:00;97690.0;;;15.4;98.3
69198;BME280;56311;50.298;8.514;2023-07-22T06:40:00;97680.0;;;15.4;99.8
69198;BME280;56311;50.298;8.514;2023-07-22T06:42:00;97680.0;;;15.2;96.1
69198;BME280;56311;50.298;8.514;2023-07-22T06:44:00;97690.0;;;15.4;97.8
69198;BME280;56311;50.298;8.514;2023-07-22T06:46:00;97680.0;;;15.3;97.7
69198;BME280;56311;50.298;8.514;2023-07-22T06:48:00;97680.0;;;15.6;96.7
69198;BME280;56311;50.298;8.514;2023-07-22T06:50:00;97690.0;;;15.8;96.3
69198;BME280;56311;50.298;8.514;2023-07-22T06:52:00;97680.0;;;15.9;94.4
69198;BME280;56311;50.298;8.514;2023-07-22T06:54:02;97690.0;;;16.1;93.0
69198;BME280;56311;50.298;8.514;2023-07-22T06:56:00;97690.0;;;16.2;93.6
69198;BME280;56311;50.298;8.514;2023-07-22T06:58:00;97690.0;;;16.4;95.3
69198;BME280;56311;50.298;8.514;2023-07-22T07:00:00;97690.0;;;16.5;86.3
69198;BME280;56311;50.298;8.514;2023-07-22T07:02:00;97680.0;;;16.8;86.4
69198;BME280;56311;50.298;8.514;2023-07-22T07:04:00;97690.0;;;16.9;82.4
69198;BME280;56311;50.298;8.514;2023-07-22T07:06:00;97690.0;;;17.1;82.8
69198;BME280;56311;50.298;8.514;2023-07-22T07:08:00;97690.0;;;17.3;76.5
69198;BME280;56311;50.298;8.514;2023-07-22T07:10:01;97690.0;;;17.5;74.7
69198;BME280;56311;50.298;8.514;2023-07-22T07:12:00;97690.0;;;17.6;73.1
69198;BME280;56311;50.298;8.514;2023-07-22T07:14:00;97690.0;;;17.7;70.8
69198;BME280;56311;50.298;8.514;2023-07-22T07:18:00;97690.0;;;17.7;63.2
69198;BME280;56311;50.298;8.514;2023-07-22T07:20:00;97690.0;;;17.9;64.0
69198;BME280;56311;50.298;8.514;2023-07-22T07:22:00;97690.0;;;17.9;63.2
69198;BME280;56311;50.298;8.514;2023-07-22T07:24:00;97690.0;;;17.9;63.7
69198;BME280;56311;50.298;8.514;2023-07-22T07:26:00;97690.0;;;17.9;63.7
69198;BME280;56311;50.298;8.514;2023-07-22T07:28:00;97690.0;;;17.9;63.0
69198;BME280;56311;50.298;8.514;2023-07-22T07:30:00;97690.0;;;17.8;63.0
69198;BME280;56311;50.298;8.514;2023-07-22T07:32:00;97690.0;;;17.8;61.9
69198;BME280;56311;50.298;8.514;2023-07-22T07:34:00;97700.0;;;17.8;63.0
69198;BME280;56311;50.298;8.514;2023-07-22T07:36:00;97700.0;;;17.7;60.6
69198;BME280;56311;50.298;8.514;2023-07-22T07:38:00;97700.0;;;17.7;61.2
69198;BME280;56311;50.298;8.514;2023-07-22T07:40:00;97700.0;;;17.9;62.7
69198;BME280;56311;50.298;8.514;2023-07-22T07:42:00;97700.0;;;17.9;61.0
69198;BME280;56311;50.298;8.514;2023-07-22T07:44:00;97700.0;;;18.0;62.1
69198;BME280;56311;50.298;8.514;2023-07-22T07:46:12;97700.0;;;18.1;62.1
69198;BME280;56311;50.298;8.514;2023-07-22T07:48:00;97700.0;;;18.2;64.0
69198;BME280;56311;50.298;8.514;2023-07-22T07:50:01;97700.0;;;18.0;60.9
69198;BME280;56311;50.298;8.514;2023-07-22T07:52:00;97700.0;;;18.0;61.8
69198;BME280;56311;50.298;8.514;2023-07-22T07:54:00;97700.0;;;18.1;63.0
69198;BME280;56311;50.298;8.514;2023-07-22T07:56:00;97700.0;;;18.1;61.6
69198;BME280;56311;50.298;8.514;2023-07-22T07:58:00;97700.0;;;18.2;61.7
69198;BME280;56311;50.298;8.514;2023-07-22T08:00:00;97700.0;;;18.2;62.8
69198;BME280;56311;50.298;8.514;2023-07-22T08:02:00;97700.0;;;18.4;64.9
69198;BME280;56311;50.298;8.514;2023-07-22T08:04:00;97700.0;;;18.4;65.5
69198;BME280;56311;50.298;8.514;2023-07-22T08:06:00;97700.0;;;18.5;65.2
69198;BME280;56311;50.298;8.514;2023-07-22T08:08:00;97700.0;;;18.4;63.1
69198;BME280;56311;50.298;8.514;2023-07-22T08:10:00;97700.0;;;18.4;63.0
69198;BME280;56311;50.298;8.514;2023-07-22T08:12:01;97700.0;;;18.7;63.6
69198;BME280;56311;50.298;8.514;2023-07-22T08:14:00;97700.0;;;19.1;61.8
69198;BME280;56311;50.298;8.514;2023-07-22T08:16:00;97690.0;;;19.1;62.6
69198;BME280;56311;50.298;8.514;2023-07-22T08:18:00;97700.0;;;19.2;62.4
69198;BME280;56311;50.298;8.514;2023-07-22T08:20:00;97690.0;;;19.4;61.9
69198;BME280;56311;50.298;8.514;2023-07-22T08:22:00;97690.0;;;19.6;61.4
69198;BME280;56311;50.298;8.514;2023-07-22T08:24:00;97690.0;;;19.6;61.7
69198;BME280;56311;50.298;8.514;2023-07-22T08:26:00;97690.0;;;19.6;59.1
69198;BME280;56311;50.298;8.514;2023-07-22T08:28:00;97690.0;;;19.6;58.6
69198;BME280;56311;50.298;8.514;2023-07-22T08:30:00;97690.0;;;19.7;59.1
69198;BME280;56311;50.298;8.514;2023-07-22T08:32:00;97690.0;;;19.6;59.3
69198;BME280;56311;50.298;8.514;2023-07-22T08:34:00;97680.0;;;19.9;59.7
69198;BME280;56311;50.298;8.514;2023-07-22T08:36:00;97680.0;;;20.1;58.0
69198;BME280;56311;50.298;8.514;2023-07-22T08:38:00;97680.0;;;20.3;57.0
69198;BME280;56311;50.298;8.514;2023-07-22T08:40:00;97670.0;;;20.4;57.5
69198;BME280;56311;50.298;8.514;2023-07-22T08:42:03;97680.0;;;20.5;56.1
69198;BME280;56311;50.298;8.514;2023-07-22T08:44:00;97680.0;;;20.4;55.7
69198;BME280;56311;50.298;8.514;2023-07-22T08:46:01;97680.0;;;20.5;54.7
69198;BME280;56311;50.298;8.514;2023-07-22T08:48:02;97680.0;;;20.5;55.3
69198;BME280;56311;50.298;8.514;2023-07-22T08:50:01;97680.0;;;20.6;56.2
69198;BME280;56311;50.298;8.514;2023-07-22T08:52:00;97680.0;;;20.7;56.1
69198;BME280;56311;50.298;8.514;2023-07-22T08:54:00;97690.0;;;20.8;54.4
69198;BME280;56311;50.298;8.514;2023-07-22T08:56:00;97680.0;;;20.5;56.0
69198;BME280;56311;50.298;8.514;2023-07-22T08:58:01;97680.0;;;20.5;57.2
69198;BME280;56311;50.298;8.514;2023-07-22T09:00:01;97680.0;;;20.3;55.5
69198;BME280;56311;50.298;8.514;2023-07-22T09:02:01;97680.0;;;19.9;56.2
69198;BME280;56311;50.298;8.514;2023-07-22T09:04:00;97670.0;;;19.6;57.9
69198;BME280;56311;50.298;8.514;2023-07-22T09:06:00;97680.0;;;19.5;58.8
69198;BME280;56311;50.298;8.514;2023-07-22T09:08:02;97680.0;;;19.4;58.2
69198;BME280;56311;50.298;8.514;2023-07-22T09:10:01;97680.0;;;19.5;59.7
69198;BME280;56311;50.298;8.514;2023-07-22T09:12:01;97680.0;;;19.5;59.1
69198;BME280;56311;50.298;8.514;2023-07-22T09:14:02;97670.0;;;19.7;59.5
69198;BME280;56311;50.298;8.514;2023-07-22T09:16:01;97670.0;;;20.1;59.3
69198;BME280;56311;50.298;8.514;2023-07-22T09:18:00;97670.0;;;20.7;59.8
69198;BME280;56311;50.298;8.514;2023-07-22T09:20:00;97670.0;;;20.9;54.6
69198;BME280;56311;50.298;8.514;2023-07-22T09:22:00;97660.0;;;21.2;54.7
69198;BME280;56311;50.298;8.514;2023-07-22T09:24:00;97670.0;;;21.0;54.3
69198;BME280;56311;50.298;8.514;2023-07-22T09:26:08;97670.0;;;20.8;55.0
69198;BME280;56311;50.298;8.514;2023-07-22T09:28:00;97670.0;;;20.5;54.1
69198;BME280;56311;50.298;8.514;2023-07-22T09:30:00;97670.0;;;20.5;54.3
69198;BME280;56311;50.298;8.514;2023-07-22T09:32:00;97670.0;;;21.0;53.5
69198;BME280;56311;50.298;8.514;2023-07-22T09:34:09;97660.0;;;21.6;53.9
69198;BME280;56311;50.298;8.514;2023-07-22T09:36:04;97660.0;;;21.9;51.5
69198;BME280;56311;50.298;8.514;2023-07-22T09:38:00;97670.0;;;21.6;51.5
69198;BME280;56311;50.298;8.514;2023-07-22T09:40:00;97660.0;;;21.1;51.5
69198;BME280;56311;50.298;8.514;2023-07-22T09:42:01;97660.0;;;20.8;53.2
69198;BME280;56311;50.298;8.514;2023-07-22T09:44:02;97660.0;;;20.4;53.9
69198;BME280;56311;50.298;8.514;2023-07-22T09:46:06;97660.0;;;20.1;55.1
69198;BME280;56311;50.298;8.514;2023-07-22T09:48:00;97660.0;;;19.8;56.1
69198;BME280;56311;50.298;8.514;2023-07-22T09:50:00;97660.0;;;19.8;55.1
69198;BME280;56311;50.298;8.514;2023-07-22T09:52:09;97660.0;;;19.8;54.8
69198;BME280;56311;50.298;8.514;2023-07-22T09:54:02;97670.0;;;19.9;54.6
69198;BME280;56311;50.298;8.514;2023-07-22T09:56:03;97660.0;;;20.3;53.4
69198;BME280;56311;50.298;8.514;2023-07-22T09:58:01;97660.0;;;20.6;53.5
69198;BME280;56311;50.298;8.514;2023-07-22T10:00:01;97660.0;;;20.6;52.5
69198;BME280;56311;50.298;8.514;2023-07-22T10:02:01;97650.0;;;20.4;53.6
69198;BME280;56311;50.298;8.514;2023-07-22T10:04:00;97650.0;;;20.8;53.1
69198;BME280;56311;50.298;8.514;2023-07-22T10:06:01;97650.0;;;20.7;52.8
69198;BME280;56311;50.298;8.514;2023-07-22T10:08:02;97650.0;;;20.9;52.7
69198;BME280;56311;50.298;8.514;2023-07-22T10:10:01;97650.0;;;20.7;52.9
69198;BME280;56311;50.298;8.514;2023-07-22T10:12:00;97650.0;;;20.7;53.5
69198;BME280;56311;50.298;8.514;2023-07-22T10:14:01;97650.0;;;20.9;53.3
69198;BME280;56311;50.298;8.514;2023-07-22T10:16:00;97650.0;;;21.6;51.7
69198;BME280;56311;50.298;8.514;2023-07-22T10:18:01;97650.0;;;22.3;51.1
69198;BME280;56311;50.298;8.514;2023-07-22T10:20:01;97640.0;;;22.6;48.2
69198;BME280;56311;50.298;8.514;2023-07-22T10:22:01;97640.0;;;22.9;48.8
69198;BME280;56311;50.298;8.514;2023-07-22T10:24:01;97630.0;;;22.5;49.1
69198;BME280;56311;50.298;8.514;2023-07-22T10:26:00;97630.0;;;22.1;51.0
69198;BME280;56311;50.298;8.514;2023-07-22T10:28:00;97630.0;;;21.5;51.6
69198;BME280;56311;50.298;8.514;2023-07-22T10:30:00;97630.0;;;21.1;51.7
69198;BME280;56311;50.298;8.514;2023-07-22T10:32:00;97640.0;;;21.0;51.9
69198;BME280;56311;50.298;8.514;2023-07-22T10:34:01;97640.0;;;20.7;53.2
69198;BME280;56311;50.298;8.514;2023-07-22T10:36:04;97640.0;;;20.6;53.5
69198;BME280;56311;50.298;8.514;2023-07-22T10:38:06;97640.0;;;20.5;54.1
69198;BME280;56311;50.298;8.514;2023-07-22T10:40:00;97640.0;;;20.1;53.4
69198;BME280;56311;50.298;8.514;2023-07-22T10:42:01;97650.0;;;20.1;54.4
69198;BME280;56311;50.298;8.514;2023-07-22T10:44:00;97640.0;;;20.0;54.0
69198;BME280;56311;50.298;8.514;2023-07-22T10:46:05;97630.0;;;20.1;53.0
69198;BME280;56311;50.298;8.514;2023-07-22T10:48:01;97630.0;;;20.3;52.8
69198;BME280;56311;50.298;8.514;2023-07-22T10:50:05;97630.0;;;20.7;52.2
69198;BME280;56311;50.298;8.514;2023-07-22T10:52:00;97630.0;;;21.4;51.7
69198;BME280;56311;50.298;8.514;2023-07-22T10:54:00;97620.0;;;21.6;50.4
69198;BME280;56311;50.298;8.514;2023-07-22T10:56:12;97630.0;;;21.7;50.0
69198;BME280;56311;50.298;8.514;2023-07-22T10:58:04;97630.0;;;21.8;50.1
69198;BME280;56311;50.298;8.514;2023-07-22T11:00:00;97620.0;;;22.0;49.2
69198;BME280;56311;50.298;8.514;2023-07-22T11:02:00;97630.0;;;22.0;48.9